Dublin, IN (47335)

02:10 PM EDT del 29 Maggio 2015 (GMT -0400)
INDOT | | Change Station
CLOSE
Current Station
Stazione meteo personale
Location: New Lisbon, IN
Altitudine: 1098 ft
Stazioni meteo nelle vicinanze

Alt. 1098 ft 39.86 °N, 85.24 °W | Updated 39 minutes ago

Parzialmente nuvoloso
Parzialmente nuvoloso
83 °F
Sembra 85 °F
N
2
Vento Variabile Vento da Sud
Gusts 12.0 mph

Oggi
Massima -- | Minima -- °F
--% Possibilità di precip.
Ieri
Massima -- | Minima -- °F
Precip. -- in
6:16 AM 9:00 PM
Gobba a ponente, 85% visible
Pressione 30.14 in
Visibilità 10.0 miglia
Nuvole Molto nuvoloso 4500 ft
Indice di calore 85 °F
Punto di rugiada 66 °F
Umidità 57%
Piovosità in
Spessore del manto nevoso Non disponibile.
Raggi UV 6 fuori da 12
Polline 6.60 fuori da 12
Qualità dell'aria Non disponibile.
Flu Activity Sporadic
METAR KAID 291647Z 21010G15KT 10SM BKN045 27/15 A3014

More Conditions Fewer Conditions

Pressione 30.14 in
Visibilità 10.0 miglia
Nuvole Molto nuvoloso 4500 ft
Indice di calore 85 °F
Punto di rugiada 66 °F
Umidità 57%
Piovosità in
Spessore del manto nevoso Non disponibile.
Raggi UV 6 fuori da 12
Polline 6.60 fuori da 12
Qualità dell'aria Non disponibile.
Flu Activity Sporadic
METAR KAID 291647Z 21010G15KT 10SM BKN045 27/15 A3014

More Conditions Fewer Conditions

10-Day Weather Forecast

Almanac

Astronomia

May. 29, 2015 Alba Tramonto
Ora attuale
Crepuscolo civile
Crepuscolo nautico
Crepuscolo astronomico
Luna
Estensione della luce visibile
Lunghezza del giorno
Tomorrow will be .
, % of the Moon is Illuminated

Gli estremi di oggi

State Highs State Lows

Community

WunderPhotos

Upload Photos

1,825,314 foto caricate!

WunderBlogs® & News

Nearby

Qualità dell'aria

  Qualità dell'aria Indice AQ Inquinante
Not available.

Profondità neve

Stazione Profondità Altitudine

Attività sismica

Città  Distanza Mag. Data & Ora
Minimo Magnitudo Mostrato è 2.5.

Temperature delle acque costiere

Località Temperatura

Stations

Stazioni meteo nelle vicinanze

Ubicazione della stazione Temp. Raffreddamento del vento Punto di rugiada Umidità Vento Precip. Alt. Aggiornato Tipo